createdAt,value
2019-03-08T00:00:25.737Z,62.84
2019-03-08T00:02:54.323Z,63.24
2019-03-08T00:05:25.417Z,63.38
2019-03-08T00:07:53.902Z,63.61
2019-03-08T00:10:23.866Z,63.15
2019-03-08T00:12:52.324Z,62.99
2019-03-08T00:15:21.000Z,63.91
2019-03-08T00:17:49.456Z,62.39
2019-03-08T00:20:18.152Z,63.28
2019-03-08T00:22:48.207Z,63.21
2019-03-08T00:25:16.890Z,63.45
2019-03-08T00:27:45.401Z,62.23
2019-03-08T00:30:15.644Z,63.03
2019-03-08T00:32:44.468Z,63.93
2019-03-08T00:35:13.743Z,65.88
2019-03-08T00:37:42.290Z,65.88
2019-03-08T00:40:15.165Z,66.48
2019-03-08T00:42:43.659Z,67.69
2019-03-08T00:45:14.294Z,67.12
2019-03-08T00:47:43.662Z,69.58
2019-03-08T00:50:14.017Z,71.63
2019-03-08T00:52:42.683Z,71.75
2019-03-08T00:55:12.323Z,72.66
2019-03-08T00:57:40.945Z,72.09
2019-03-08T01:00:15.841Z,72.85
2019-03-08T01:02:45.262Z,74.18
2019-03-08T01:05:18.484Z,73.67
2019-03-08T01:07:49.375Z,75.02
2019-03-08T01:10:20.085Z,75.32
2019-03-08T01:12:50.389Z,76.35
2019-03-08T01:15:19.213Z,76.83
2019-03-08T01:17:47.945Z,77.35
2019-03-08T01:20:18.499Z,77.85
2019-03-08T01:22:47.144Z,78.71
2019-03-08T01:25:16.789Z,79.83
2019-03-08T01:28:00.213Z,79.52
2019-03-08T01:30:28.942Z,81.55
2019-03-08T01:32:57.417Z,81.66
2019-03-08T01:35:26.203Z,82.21
2019-03-08T01:37:54.989Z,82.05
2019-03-08T01:40:24.806Z,83.18
2019-03-08T01:42:53.405Z,81.12
2019-03-08T01:45:22.182Z,82.21
2019-03-08T01:47:50.664Z,82.82
2019-03-08T01:50:19.569Z,82.88
2019-03-08T01:52:48.379Z,83.00
2019-03-08T01:55:17.231Z,83.14
2019-03-08T01:57:45.697Z,83.41
2019-03-08T02:00:19.502Z,83.57
2019-03-08T02:02:48.407Z,83.56
2019-03-08T02:05:17.413Z,83.93
2019-03-08T02:07:46.801Z,84.34
2019-03-08T02:10:16.893Z,84.67
2019-03-08T02:12:46.938Z,84.02
2019-03-08T02:15:17.400Z,84.64
2019-03-08T02:17:46.893Z,84.62
2019-03-08T02:20:18.058Z,84.68
2019-03-08T02:22:47.094Z,84.99
2019-03-08T02:25:16.391Z,84.42
2019-03-08T02:27:45.083Z,85.51
2019-03-08T02:30:15.643Z,85.97
2019-03-08T02:32:44.785Z,86.24
2019-03-08T02:35:14.979Z,86.33
2019-03-08T02:37:44.023Z,86.90
2019-03-08T02:40:31.571Z,86.87
2019-03-08T02:43:02.384Z,87.13
2019-03-08T02:45:33.361Z,87.34
2019-03-08T02:48:01.943Z,87.42
2019-03-08T02:50:30.570Z,87.85
2019-03-08T02:52:59.264Z,87.78
2019-03-08T02:55:27.879Z,88.12
2019-03-08T02:57:56.524Z,88.25
2019-03-08T03:00:31.359Z,88.28
2019-03-08T03:02:59.844Z,88.38
2019-03-08T03:05:28.461Z,88.41
2019-03-08T03:07:58.716Z,88.39
2019-03-08T03:10:27.212Z,88.21
2019-03-08T03:12:55.708Z,88.23
2019-03-08T03:15:25.157Z,88.13
2019-03-08T03:17:53.628Z,87.68
2019-03-08T03:20:41.043Z,87.74
2019-03-08T03:23:09.908Z,87.93
2019-03-08T03:25:38.412Z,87.78
2019-03-08T03:28:07.866Z,87.69
2019-03-08T03:30:36.397Z,87.77
2019-03-08T03:33:05.767Z,87.82
2019-03-08T03:35:34.471Z,87.88
2019-03-08T03:38:05.563Z,87.96
2019-03-08T03:40:35.128Z,87.77
2019-03-08T03:43:03.778Z,87.76
2019-03-08T03:45:33.371Z,87.94
2019-03-08T03:48:01.853Z,88.11
2019-03-08T03:50:30.590Z,87.96
2019-03-08T03:52:59.358Z,88.07
2019-03-08T03:55:29.311Z,88.21
2019-03-08T03:57:58.027Z,88.01
2019-03-08T04:00:26.570Z,88.15
2019-03-08T04:02:55.378Z,88.19
2019-03-08T04:05:24.026Z,88.16
2019-03-08T04:07:52.491Z,88.14
2019-03-08T04:10:22.726Z,88.09
2019-03-08T04:12:51.270Z,88.28
2019-03-08T04:15:23.079Z,88.35
2019-03-08T04:17:52.949Z,88.26
2019-03-08T04:20:21.955Z,88.37
2019-03-08T04:22:50.481Z,88.48
2019-03-08T04:25:19.165Z,88.49
2019-03-08T04:27:47.719Z,88.42
2019-03-08T04:30:20.846Z,88.48
2019-03-08T04:32:49.387Z,88.62
2019-03-08T04:35:18.047Z,88.54
2019-03-08T04:37:46.616Z,88.67
2019-03-08T04:40:15.596Z,88.55
2019-03-08T04:42:44.300Z,88.62
2019-03-08T04:45:15.744Z,88.49
2019-03-08T04:47:44.358Z,88.31
2019-03-08T04:50:16.116Z,88.20
2019-03-08T04:52:45.072Z,88.18
2019-03-08T04:55:18.080Z,88.42
2019-03-08T04:57:47.062Z,88.30
2019-03-08T05:00:19.093Z,88.07
2019-03-08T05:02:50.599Z,87.97
2019-03-08T05:05:19.310Z,87.59
2019-03-08T05:07:47.937Z,87.93
2019-03-08T05:10:18.045Z,88.00
2019-03-08T05:12:48.967Z,87.77
2019-03-08T05:15:20.738Z,87.54
2019-03-08T05:17:52.119Z,87.74
2019-03-08T05:20:21.973Z,87.50
2019-03-08T05:22:52.689Z,87.52
2019-03-08T05:25:21.469Z,87.84
2019-03-08T05:27:50.073Z,88.05
2019-03-08T05:30:18.991Z,88.08
2019-03-08T05:32:48.682Z,88.09
2019-03-08T05:35:19.075Z,88.36
2019-03-08T05:37:50.491Z,88.58
2019-03-08T05:40:20.786Z,88.69
2019-03-08T05:42:49.263Z,88.67
2019-03-08T05:45:37.123Z,88.81
2019-03-08T05:48:05.863Z,88.81
2019-03-08T05:50:34.428Z,88.57
2019-03-08T05:53:02.892Z,88.50
2019-03-08T05:55:31.465Z,88.25
2019-03-08T05:58:01.485Z,88.62
2019-03-08T06:00:35.251Z,88.49
2019-03-08T06:03:04.265Z,88.24
2019-03-08T06:05:34.923Z,88.17
2019-03-08T06:08:03.464Z,88.10
2019-03-08T06:10:34.029Z,87.89
2019-03-08T06:13:03.934Z,87.97
2019-03-08T06:15:32.472Z,88.16
2019-03-08T06:18:01.118Z,87.97
2019-03-08T06:20:29.862Z,88.15
2019-03-08T06:23:04.580Z,87.66
2019-03-08T06:25:33.296Z,87.77
2019-03-08T06:28:01.849Z,87.42
2019-03-08T06:30:30.406Z,87.54
2019-03-08T06:32:58.883Z,87.74
2019-03-08T06:35:30.488Z,87.93
2019-03-08T06:37:59.091Z,88.02
2019-03-08T06:40:29.190Z,87.08
2019-03-08T06:42:57.677Z,87.17
2019-03-08T06:45:26.232Z,87.13
2019-03-08T06:47:55.300Z,87.09
2019-03-08T06:50:23.894Z,87.14
2019-03-08T06:52:52.419Z,87.46
2019-03-08T06:55:22.696Z,87.48
2019-03-08T06:58:00.233Z,87.49
2019-03-08T07:00:33.428Z,87.46
2019-03-08T07:03:02.095Z,87.41
2019-03-08T07:05:31.628Z,87.32
2019-03-08T07:08:00.200Z,87.54
2019-03-08T07:10:28.730Z,87.42
2019-03-08T07:13:03.385Z,87.30
2019-03-08T07:15:29.956Z,87.67
2019-03-08T07:17:58.846Z,87.65
2019-03-08T07:20:34.594Z,87.59
2019-03-08T07:23:04.730Z,87.23
2019-03-08T07:25:50.958Z,87.34
2019-03-08T07:28:14.111Z,87.44
2019-03-08T07:30:44.295Z,87.60
2019-03-08T07:33:17.327Z,87.44
2019-03-08T07:35:59.879Z,87.38
2019-03-08T07:38:29.972Z,87.60
2019-03-08T07:41:03.064Z,87.35
2019-03-08T07:43:36.154Z,87.72
2019-03-08T07:46:24.404Z,87.23
2019-03-08T07:48:56.077Z,87.19
2019-03-08T07:51:28.677Z,86.92
2019-03-08T07:54:11.161Z,86.55
2019-03-08T07:56:41.269Z,86.35
2019-03-08T07:59:20.261Z,85.77
2019-03-08T08:01:56.116Z,86.39
2019-03-08T08:04:44.901Z,86.28
2019-03-08T08:07:31.011Z,86.43
2019-03-08T08:10:03.791Z,86.23
2019-03-08T08:12:36.618Z,86.17
2019-03-08T08:15:18.863Z,86.12
2019-03-08T08:17:54.579Z,86.10
2019-03-08T08:20:25.015Z,86.05
2019-03-08T08:22:55.122Z,85.61
2019-03-08T08:25:40.579Z,85.67
2019-03-08T08:28:27.659Z,85.37
2019-03-08T08:31:02.777Z,84.47
2019-03-08T08:33:48.881Z,84.34
2019-03-08T08:36:25.449Z,83.94
2019-03-08T08:38:58.569Z,83.97
2019-03-08T08:41:31.513Z,84.50
2019-03-08T08:44:01.754Z,84.30
2019-03-08T08:46:48.373Z,84.76
2019-03-08T08:49:37.755Z,84.56
2019-03-08T08:52:21.578Z,84.91
2019-03-08T08:54:51.676Z,85.26
2019-03-08T08:57:27.840Z,85.95
2019-03-08T08:59:57.955Z,83.17
2019-03-08T09:05:35.560Z,81.81
2019-03-08T09:08:14.905Z,83.04
2019-03-08T09:10:49.138Z,76.42
2019-03-08T09:13:19.301Z,77.19
2019-03-08T09:15:52.134Z,78.33
2019-03-08T09:18:24.975Z,77.08
2019-03-08T09:20:58.054Z,76.49
2019-03-08T09:23:28.188Z,75.09
2019-03-08T09:26:15.832Z,77.25
2019-03-08T09:28:54.411Z,76.36
2019-03-08T09:31:39.572Z,75.66
2019-03-08T09:34:09.750Z,78.71
2019-03-08T09:36:42.413Z,74.03
2019-03-08T09:39:28.585Z,74.40
2019-03-08T09:41:58.758Z,71.79
2019-03-08T09:44:45.464Z,69.78
2019-03-08T09:47:16.698Z,69.05
2019-03-08T09:49:51.794Z,64.37
2019-03-08T09:52:26.386Z,64.44
2019-03-08T09:55:02.261Z,65.50
2019-03-08T09:57:41.900Z,61.71
2019-03-08T10:00:16.666Z,65.05
2019-03-08T10:03:04.402Z,65.43
2019-03-08T10:08:39.682Z,67.84
2019-03-08T10:11:09.812Z,66.80
2019-03-08T10:13:42.657Z,69.87
2019-03-08T10:16:18.315Z,67.55
2019-03-08T10:18:48.453Z,64.68
2019-03-08T10:21:21.296Z,65.45
2019-03-08T10:23:51.653Z,65.89
2019-03-08T10:26:21.872Z,64.01
2019-03-08T10:28:52.005Z,65.14
2019-03-08T10:31:22.181Z,61.25
2019-03-08T10:33:55.314Z,61.94
2019-03-08T10:36:37.700Z,64.87
2019-03-08T10:39:09.842Z,67.60
2019-03-08T10:41:40.028Z,67.92
2019-03-08T10:44:28.434Z,68.15
2019-03-08T10:47:16.922Z,66.64
2019-03-08T10:49:55.401Z,66.12
2019-03-08T10:52:30.216Z,64.18
2019-03-08T10:55:05.731Z,66.41
2019-03-08T10:57:38.793Z,64.22
2019-03-08T11:00:15.144Z,62.31
2019-03-08T11:02:48.256Z,63.44
2019-03-08T11:05:18.971Z,61.75
2019-03-08T11:07:58.243Z,62.39
2019-03-08T11:10:31.701Z,61.03
2019-03-08T11:13:01.969Z,59.88
2019-03-08T11:15:35.026Z,60.29
2019-03-08T11:18:05.153Z,61.19
2019-03-08T11:20:47.352Z,58.51
2019-03-08T11:23:17.541Z,57.16
2019-03-08T11:25:50.034Z,57.99
2019-03-08T11:28:21.304Z,57.28
2019-03-08T11:30:54.753Z,54.68
2019-03-08T11:33:30.481Z,55.74
2019-03-08T11:36:15.401Z,53.87
2019-03-08T11:38:48.329Z,52.35
2019-03-08T11:41:24.199Z,54.65
2019-03-08T11:43:56.756Z,54.69
2019-03-08T11:46:29.425Z,53.11
2019-03-08T11:48:59.617Z,55.11
2019-03-08T11:51:29.744Z,54.63
2019-03-08T11:54:52.910Z,53.90
2019-03-08T11:57:31.867Z,53.99
2019-03-08T12:02:50.391Z,54.52
2019-03-08T12:05:36.667Z,53.12
2019-03-08T12:08:09.879Z,51.58
2019-03-08T12:10:42.977Z,53.58
2019-03-08T12:13:14.624Z,53.90
2019-03-08T12:15:44.951Z,53.07
2019-03-08T12:18:22.074Z,50.85
2019-03-08T12:20:57.007Z,50.98
2019-03-08T12:23:31.130Z,53.39
2019-03-08T12:26:07.559Z,51.36
2019-03-08T12:28:40.721Z,49.81
2019-03-08T12:31:26.218Z,49.27
2019-03-08T12:34:49.018Z,51.40
2019-03-08T12:37:19.160Z,51.89
2019-03-08T12:39:55.217Z,52.53
2019-03-08T12:42:31.455Z,51.57
2019-03-08T12:45:12.582Z,51.05
2019-03-08T12:48:02.111Z,54.18
2019-03-08T12:50:32.229Z,53.11
2019-03-08T12:53:02.354Z,51.26
2019-03-08T12:55:41.298Z,50.66
2019-03-08T12:58:25.135Z,50.18
2019-03-08T13:01:05.554Z,48.04
2019-03-08T13:03:35.679Z,50.01
2019-03-08T13:06:08.742Z,47.03
2019-03-08T13:08:47.822Z,46.14
2019-03-08T13:11:16.320Z,43.87
2019-03-08T13:13:44.881Z,45.00
2019-03-08T13:16:13.756Z,41.54
2019-03-08T13:18:42.297Z,40.53
2019-03-08T13:21:10.792Z,41.26
2019-03-08T13:23:39.365Z,42.94
2019-03-08T13:26:07.871Z,42.09
2019-03-08T13:28:36.343Z,42.07
2019-03-08T13:31:05.089Z,43.55
2019-03-08T13:33:34.532Z,42.86
2019-03-08T13:36:03.036Z,43.39
2019-03-08T13:38:31.570Z,42.34
2019-03-08T13:41:00.104Z,40.83
2019-03-08T13:43:31.348Z,41.38
2019-03-08T13:45:59.847Z,41.98
2019-03-08T13:48:28.425Z,40.36
2019-03-08T13:50:56.966Z,40.77
2019-03-08T13:53:25.470Z,43.54
2019-03-08T13:55:54.022Z,41.76
2019-03-08T13:58:22.555Z,41.25
2019-03-08T14:00:51.100Z,42.01
2019-03-08T14:03:21.242Z,41.13
2019-03-08T14:05:52.531Z,41.55
2019-03-08T14:08:21.194Z,41.26
2019-03-08T14:10:49.706Z,41.26
2019-03-08T14:13:18.391Z,43.35
2019-03-08T14:15:46.859Z,41.98
2019-03-08T14:18:16.881Z,43.79
2019-03-08T14:20:45.577Z,43.72
2019-03-08T14:23:14.080Z,43.97
2019-03-08T14:25:47.639Z,44.20
2019-03-08T14:28:15.825Z,44.61
2019-03-08T14:30:57.534Z,46.16
2019-03-08T14:33:19.529Z,45.91
2019-03-08T14:35:51.108Z,46.53
2019-03-08T14:38:19.676Z,47.38
2019-03-08T14:40:53.402Z,46.10
2019-03-08T14:43:21.675Z,46.60
2019-03-08T14:45:54.610Z,47.15
2019-03-08T14:48:23.734Z,45.88
2019-03-08T14:50:52.199Z,44.68
2019-03-08T14:53:20.755Z,47.34
2019-03-08T14:55:49.524Z,46.06
2019-03-08T14:58:20.869Z,45.99
2019-03-08T15:00:49.409Z,44.17
2019-03-08T15:03:20.120Z,45.09
2019-03-08T15:05:51.186Z,47.07
2019-03-08T15:08:19.282Z,46.19
2019-03-08T15:10:51.145Z,46.53
2019-03-08T15:13:20.150Z,47.05
2019-03-08T15:15:48.573Z,48.71
2019-03-08T15:18:21.502Z,50.82
2019-03-08T15:20:54.861Z,52.27
2019-03-08T15:23:23.230Z,51.08
2019-03-08T15:25:51.870Z,51.90
2019-03-08T15:28:20.336Z,52.32
2019-03-08T15:30:48.820Z,52.24
2019-03-08T15:33:17.283Z,51.89
2019-03-08T15:35:45.751Z,51.67
2019-03-08T15:38:14.289Z,52.26
2019-03-08T15:40:42.841Z,52.48
2019-03-08T15:43:13.634Z,52.16
2019-03-08T15:45:44.398Z,52.36
2019-03-08T15:48:14.631Z,52.39
2019-03-08T15:50:46.744Z,52.28
2019-03-08T15:53:14.503Z,52.92
2019-03-08T15:55:52.438Z,53.22
2019-03-08T15:58:13.705Z,52.99
2019-03-08T16:00:45.345Z,52.77
2019-03-08T16:03:13.912Z,54.23
2019-03-08T16:05:42.714Z,53.07
2019-03-08T16:08:11.614Z,53.78
2019-03-08T16:10:44.941Z,53.72
2019-03-08T16:13:13.774Z,54.48
2019-03-08T16:15:42.533Z,53.53
2019-03-08T16:18:13.476Z,53.77
2019-03-08T16:20:42.197Z,52.17
2019-03-08T16:23:11.178Z,52.54
2019-03-08T16:25:41.065Z,51.93
2019-03-08T16:28:14.917Z,52.77
2019-03-08T16:30:52.792Z,51.94
2019-03-08T16:33:25.533Z,52.33
2019-03-08T16:35:57.562Z,52.88
2019-03-08T16:38:31.060Z,52.31
2019-03-08T16:41:16.117Z,53.31
2019-03-08T16:43:54.059Z,52.83
2019-03-08T16:46:29.554Z,52.26
2019-03-08T16:49:05.519Z,52.86
2019-03-08T16:51:51.964Z,53.33
2019-03-08T16:54:27.580Z,52.75
2019-03-08T16:57:03.902Z,53.43
2019-03-08T16:59:43.796Z,53.29
2019-03-08T17:02:16.802Z,53.09
2019-03-08T17:04:58.842Z,53.03
2019-03-08T17:07:29.546Z,55.61
2019-03-08T17:10:08.911Z,53.36
2019-03-08T17:12:41.791Z,53.28
2019-03-08T17:15:13.899Z,53.16
2019-03-08T17:18:00.229Z,52.98
2019-03-08T17:20:36.525Z,53.80
2019-03-08T17:23:06.943Z,54.17
2019-03-08T17:25:38.930Z,54.17
2019-03-08T17:28:17.978Z,54.23
2019-03-08T17:30:51.023Z,54.62
2019-03-08T17:33:26.999Z,55.12
2019-03-08T17:35:59.614Z,54.74
2019-03-08T17:38:29.774Z,54.73
2019-03-08T17:41:18.010Z,54.80
2019-03-08T17:43:50.825Z,54.68
2019-03-08T17:46:20.955Z,54.98
2019-03-08T17:48:55.285Z,55.41
2019-03-08T17:51:42.717Z,55.83
2019-03-08T17:54:24.250Z,56.52
2019-03-08T17:57:10.899Z,56.24
2019-03-08T17:59:44.209Z,56.37
2019-03-08T18:02:25.374Z,56.60
2019-03-08T18:05:05.847Z,56.70
2019-03-08T18:07:52.386Z,57.02
2019-03-08T18:10:23.223Z,57.56
2019-03-08T18:12:55.757Z,57.60
2019-03-08T18:15:32.395Z,57.44
2019-03-08T18:18:05.721Z,57.73
2019-03-08T18:20:41.836Z,57.73
2019-03-08T18:23:14.527Z,57.89
2019-03-08T18:25:44.645Z,58.12
2019-03-08T18:28:30.639Z,57.99
2019-03-08T18:31:03.073Z,58.09
2019-03-08T18:37:03.991Z,58.83
2019-03-08T18:39:45.820Z,58.02
2019-03-08T18:42:15.906Z,58.61
2019-03-08T18:44:48.998Z,59.19
2019-03-08T18:47:19.149Z,59.57
2019-03-08T18:49:49.253Z,59.33
2019-03-08T18:52:35.811Z,59.56
2019-03-08T18:55:23.878Z,59.15
2019-03-08T18:58:10.376Z,59.12
2019-03-08T19:00:40.491Z,59.35
2019-03-08T19:03:25.695Z,59.61
2019-03-08T19:06:05.173Z,59.85
2019-03-08T19:08:40.956Z,60.04
2019-03-08T19:11:11.075Z,59.73
2019-03-08T19:13:49.460Z,59.58
2019-03-08T19:16:19.569Z,59.90
2019-03-08T19:19:01.857Z,59.79
2019-03-08T19:21:41.975Z,60.43
2019-03-08T19:24:23.655Z,60.89
2019-03-08T19:27:02.270Z,60.07
2019-03-08T19:29:49.046Z,60.26
2019-03-08T19:32:19.188Z,60.91
2019-03-08T19:34:58.588Z,60.65
2019-03-08T19:37:32.353Z,61.10
2019-03-08T19:40:11.516Z,61.72
2019-03-08T19:42:42.897Z,61.63
2019-03-08T19:45:25.335Z,61.80
2019-03-08T19:47:58.823Z,62.07
2019-03-08T19:50:32.051Z,62.04
2019-03-08T19:53:11.580Z,62.14
2019-03-08T19:55:41.787Z,62.26
2019-03-08T19:58:23.996Z,62.87
2019-03-08T20:01:06.201Z,62.30
2019-03-08T20:03:48.578Z,62.72
2019-03-08T20:06:24.477Z,62.79
2019-03-08T20:08:54.684Z,63.13
2019-03-08T20:11:33.581Z,62.69
2019-03-08T20:14:06.388Z,62.98
2019-03-08T20:16:51.470Z,63.14
2019-03-08T20:19:28.009Z,63.74
2019-03-08T20:22:00.994Z,65.34
2019-03-08T20:24:46.492Z,64.34
2019-03-08T20:27:33.107Z,64.91
2019-03-08T20:30:12.603Z,65.25
2019-03-08T20:32:45.510Z,64.74
2019-03-08T20:35:24.925Z,65.29
2019-03-08T20:38:13.217Z,65.50
2019-03-08T20:41:00.092Z,66.07
2019-03-08T20:43:34.006Z,66.06
2019-03-08T20:46:14.970Z,66.82
2019-03-08T20:48:43.232Z,66.36
2019-03-08T20:51:13.477Z,65.81
2019-03-08T20:53:41.980Z,66.46
2019-03-08T20:56:10.474Z,67.14
2019-03-08T20:58:38.976Z,66.69
2019-03-08T21:01:07.596Z,67.53
2019-03-08T21:03:39.259Z,66.68
2019-03-08T21:06:07.831Z,66.41
2019-03-08T21:08:41.306Z,66.61
2019-03-08T21:11:09.300Z,66.61
2019-03-08T21:13:37.772Z,66.44
2019-03-08T21:16:06.329Z,66.12
2019-03-08T21:18:36.411Z,66.44
2019-03-08T21:21:05.133Z,66.64
2019-03-08T21:23:36.184Z,66.24
2019-03-08T21:26:06.268Z,65.70
2019-03-08T21:28:34.835Z,66.85
2019-03-08T21:31:03.753Z,66.36
2019-03-08T21:33:34.298Z,66.44
2019-03-08T21:36:07.052Z,65.94
2019-03-08T21:38:35.553Z,66.24
2019-03-08T21:41:04.088Z,66.40
2019-03-08T21:43:32.578Z,66.40
2019-03-08T21:46:02.679Z,65.79
2019-03-08T21:48:31.148Z,65.38
2019-03-08T21:50:59.745Z,65.71
2019-03-08T22:00:32.258Z,65.57
2019-03-08T22:03:06.750Z,65.69
2019-03-08T22:05:32.634Z,65.61
2019-03-08T22:08:01.113Z,65.77
2019-03-08T22:10:34.271Z,66.48
2019-03-08T22:13:02.847Z,66.64
2019-03-08T22:15:31.382Z,65.74
2019-03-08T22:17:59.848Z,66.39
2019-03-08T22:20:28.480Z,65.92
2019-03-08T22:22:56.945Z,66.45
2019-03-08T22:25:26.112Z,64.97
2019-03-08T22:27:54.597Z,65.77
2019-03-08T22:30:23.211Z,65.15
2019-03-08T22:32:51.677Z,65.29
2019-03-08T22:35:26.525Z,64.70
2019-03-08T22:37:55.205Z,64.92
2019-03-08T22:40:23.778Z,66.10
2019-03-08T22:42:54.023Z,65.33
2019-03-08T22:45:22.617Z,65.93
2019-03-08T22:47:51.097Z,66.22
2019-03-08T22:50:34.065Z,66.99
2019-03-08T22:53:04.421Z,66.95
2019-03-08T22:55:33.121Z,66.91
2019-03-08T22:58:01.587Z,66.75
2019-03-08T23:00:55.579Z,67.15
2019-03-08T23:03:25.499Z,68.23
2019-03-08T23:05:54.059Z,68.03
2019-03-08T23:08:22.665Z,68.28
2019-03-08T23:10:51.331Z,68.19
2019-03-08T23:13:21.328Z,68.09
2019-03-08T23:15:51.508Z,67.70
2019-03-08T23:18:20.047Z,67.35
2019-03-08T23:20:48.483Z,67.29
2019-03-08T23:23:17.338Z,68.30
2019-03-08T23:25:45.879Z,67.94
2019-03-08T23:28:21.743Z,67.84
2019-03-08T23:30:58.407Z,67.66
2019-03-08T23:33:27.163Z,68.74
2019-03-08T23:35:57.525Z,67.93
2019-03-08T23:38:25.960Z,67.99
2019-03-08T23:40:56.700Z,68.44
2019-03-08T23:43:24.725Z,69.10
2019-03-08T23:45:53.383Z,68.51
2019-03-08T23:48:21.882Z,68.94
2019-03-08T23:50:51.888Z,69.55
2019-03-08T23:53:20.417Z,69.06
2019-03-08T23:55:48.859Z,69.27
2019-03-08T23:58:17.344Z,69.80
